createdAt,value
2022-12-31T00:00:47.301Z,4159.2
2022-12-31T00:06:23.596Z,4155
2022-12-31T00:12:00.045Z,4156.2
2022-12-31T00:17:36.216Z,4158.5
2022-12-31T00:23:11.163Z,4155.7
2022-12-31T00:28:48.624Z,4156.2
2022-12-31T00:34:33.591Z,4158.4
2022-12-31T00:40:11.652Z,4156.2
2022-12-31T00:45:47.324Z,4155.3
2022-12-31T00:51:33.235Z,4156.2
2022-12-31T00:57:26.688Z,4152.3
2022-12-31T01:03:06.817Z,4152.7
2022-12-31T01:08:42.954Z,4153.7
2022-12-31T01:14:21.026Z,4153.8
2022-12-31T01:19:57.254Z,4151.7
2022-12-31T01:25:53.541Z,4153.2
2022-12-31T01:31:30.391Z,4154.7
2022-12-31T01:37:05.972Z,4152.2
2022-12-31T01:42:41.203Z,4150.8
2022-12-31T01:48:38.097Z,4148
2022-12-31T01:54:10.905Z,4151.2
2022-12-31T02:00:06.981Z,4149.1
2022-12-31T02:05:42.660Z,4149.5
2022-12-31T02:11:18.367Z,4152.3
2022-12-31T02:17:16.977Z,4149.1
2022-12-31T02:22:59.251Z,4148.8
2022-12-31T02:28:44.233Z,4150
2022-12-31T02:34:28.346Z,4149.6
2022-12-31T02:40:04.855Z,4150.5
2022-12-31T02:45:41.388Z,4147
2022-12-31T02:51:16.479Z,4148.8
2022-12-31T02:56:51.665Z,4147.3
2022-12-31T03:02:28.775Z,4148.1
2022-12-31T03:08:26.220Z,4148.8
2022-12-31T03:14:52.267Z,4148
2022-12-31T03:20:29.400Z,4148.5
2022-12-31T03:26:04.636Z,4146.5
2022-12-31T03:32:05.876Z,4148.8
2022-12-31T03:37:43.415Z,4146.8
2022-12-31T03:43:26.498Z,4147.3
2022-12-31T03:49:24.007Z,4142.1
2022-12-31T03:54:58.336Z,4146.1
2022-12-31T04:00:34.462Z,4145.6
2022-12-31T04:06:10.734Z,4146
2022-12-31T04:11:56.928Z,4147.1
2022-12-31T04:17:41.141Z,4147.1
2022-12-31T04:23:17.647Z,4145
2022-12-31T04:28:53.551Z,4144.5
2022-12-31T04:34:40.676Z,4142.4
2022-12-31T04:40:16.935Z,4144.1
2022-12-31T04:45:52.699Z,4141.6
2022-12-31T04:51:38.508Z,4144.3
2022-12-31T04:57:14.315Z,4143.3
2022-12-31T05:02:54.147Z,4141.8
2022-12-31T05:08:51.606Z,4141.9
2022-12-31T05:14:27.432Z,4140.8
2022-12-31T05:20:02.798Z,4144.8
2022-12-31T05:25:38.178Z,4140.9
2022-12-31T05:31:14.805Z,4141.4
2022-12-31T05:36:50.196Z,4141.1
2022-12-31T05:42:26.080Z,4141.4
2022-12-31T05:48:22.986Z,4137.2
2022-12-31T05:53:58.257Z,4133.6
2022-12-31T05:59:42.072Z,4138.6
2022-12-31T06:05:28.635Z,4140.3
2022-12-31T06:11:03.952Z,4139.9
2022-12-31T06:17:06.213Z,4137.1
2022-12-31T06:22:45.479Z,4138.3
2022-12-31T06:28:21.987Z,4137.6
2022-12-31T06:33:59.862Z,4139.3
2022-12-31T06:39:56.381Z,4137.8
2022-12-31T06:45:31.747Z,4137.3
2022-12-31T06:51:48.777Z,4134.1
2022-12-31T06:57:25.885Z,4135.6
2022-12-31T07:03:03.084Z,4136.6
2022-12-31T07:08:44.908Z,4136.6
2022-12-31T07:14:36.105Z,4139.3
2022-12-31T07:20:12.319Z,4136.1
2022-12-31T07:26:09.811Z,4135.7
2022-12-31T07:32:01.737Z,4135.1
2022-12-31T07:38:07.938Z,4134.1
2022-12-31T07:43:55.428Z,4132.1
2022-12-31T07:49:32.568Z,4131.4
2022-12-31T07:55:16.434Z,4141.1
2022-12-31T08:00:53.891Z,4145.1
2022-12-31T08:06:36.392Z,4152.2
2022-12-31T08:12:11.727Z,4163.2
2022-12-31T08:17:47.356Z,4183.8
2022-12-31T08:23:23.448Z,4186.3
2022-12-31T08:29:09.558Z,4201.6
2022-12-31T08:38:18.422Z,4192
2022-12-31T08:44:11.159Z,4212
2022-12-31T08:49:50.194Z,4180.3
2022-12-31T08:55:25.650Z,4175.8
2022-12-31T09:01:36.214Z,4178.8
2022-12-31T09:07:32.988Z,4189.2
2022-12-31T09:13:14.886Z,4191
2022-12-31T09:18:58.844Z,4187
2022-12-31T09:24:39.714Z,4207.8
2022-12-31T09:31:52.881Z,4190.2
2022-12-31T09:37:29.269Z,4178.3
2022-12-31T09:43:18.881Z,4169.4
2022-12-31T09:49:03.264Z,4171.4
2022-12-31T09:55:20.441Z,4170.9
2022-12-31T10:00:56.439Z,4170.6
2022-12-31T10:06:31.846Z,4168.6
2022-12-31T10:13:38.482Z,4173.4
2022-12-31T10:19:23.756Z,4171.9
2022-12-31T10:25:07.548Z,4168.2
2022-12-31T10:30:43.395Z,4170.7
2022-12-31T10:36:18.549Z,4174.1
2022-12-31T10:42:07.768Z,4172.3
2022-12-31T10:48:04.901Z,4167.4
2022-12-31T10:53:38.958Z,4174.9
2022-12-31T10:59:14.227Z,4174.6
2022-12-31T11:04:59.157Z,4172.9
2022-12-31T11:10:34.596Z,4187
2022-12-31T11:16:37.211Z,4183.1
2022-12-31T11:22:33.213Z,4190.5
2022-12-31T11:29:04.233Z,4189.8
2022-12-31T11:34:40.624Z,4194.2
2022-12-31T11:40:45.463Z,4184.1
2022-12-31T11:46:43.241Z,4189
2022-12-31T11:52:48.947Z,4193.2
2022-12-31T11:58:35.145Z,4199.7
2022-12-31T12:04:10.878Z,4200.2
2022-12-31T12:09:46.365Z,4208.1
2022-12-31T12:15:33.918Z,4202.9
2022-12-31T12:21:13.036Z,4200.7
2022-12-31T12:26:50.928Z,4205.9
2022-12-31T12:32:26.087Z,4211.8
2022-12-31T12:38:09.913Z,4210.3
2022-12-31T12:43:49.498Z,4200.2
2022-12-31T12:49:48.172Z,4214
2022-12-31T12:55:44.785Z,4215.8
2022-12-31T13:01:22.304Z,4206.8
2022-12-31T13:07:07.927Z,4216
2022-12-31T13:13:26.947Z,4219.5
2022-12-31T13:19:08.143Z,4219.7
2022-12-31T13:24:43.607Z,4206.6
2022-12-31T13:30:31.549Z,4221.2
2022-12-31T13:36:06.904Z,4213.8
2022-12-31T13:41:43.470Z,4217.8
2022-12-31T13:47:23.603Z,4209.6
2022-12-31T13:53:02.706Z,4203.2
2022-12-31T13:58:37.969Z,4198.4
2022-12-31T14:04:16.482Z,4197.7
2022-12-31T14:09:52.785Z,4198.9
2022-12-31T14:15:55.462Z,4197.7
2022-12-31T14:21:49.205Z,4193.9
2022-12-31T14:27:24.695Z,4196.5
2022-12-31T14:33:21.157Z,4190
2022-12-31T14:39:08.655Z,4193.7
2022-12-31T14:44:43.729Z,4193.5
2022-12-31T14:50:28.014Z,4193.9
2022-12-31T14:56:31.146Z,4191.9
2022-12-31T15:02:12.208Z,4197.7
2022-12-31T15:07:47.950Z,4198.9
2022-12-31T15:13:32.456Z,4203.2
2022-12-31T15:19:09.306Z,4206.4
2022-12-31T15:24:51.075Z,4203.9
2022-12-31T15:30:26.521Z,4192.9
2022-12-31T15:36:39.153Z,4189.3
2022-12-31T15:42:52.188Z,4196
2022-12-31T15:48:28.634Z,4190.5
2022-12-31T15:54:04.044Z,4193
2022-12-31T15:59:53.707Z,4186.5
2022-12-31T16:05:31.980Z,4184.7
2022-12-31T16:11:07.738Z,4181
2022-12-31T16:16:50.123Z,4178.8
2022-12-31T16:22:27.796Z,4182.3
2022-12-31T16:28:03.971Z,4178.1
2022-12-31T16:33:39.639Z,4178.8
2022-12-31T16:39:14.908Z,4177.3
2022-12-31T16:44:51.686Z,4178.3
2022-12-31T16:50:30.500Z,4178.5
2022-12-31T16:56:17.813Z,4177.1
2022-12-31T17:01:55.642Z,4175.8
2022-12-31T17:07:45.265Z,4174.9
2022-12-31T17:13:31.811Z,4178
2022-12-31T17:19:08.347Z,4176.6
2022-12-31T17:24:43.316Z,4176.8
2022-12-31T17:30:19.256Z,4175.3
2022-12-31T17:36:17.976Z,4174.3
2022-12-31T17:41:57.101Z,4174.4
2022-12-31T17:47:43.749Z,4173.4
2022-12-31T17:53:19.242Z,4173.6
2022-12-31T17:58:54.371Z,4172.8
2022-12-31T18:04:33.031Z,4172.9
2022-12-31T18:10:11.446Z,4173.4
2022-12-31T18:15:49.706Z,4171.1
2022-12-31T18:21:25.321Z,4171.8
2022-12-31T18:27:00.540Z,4172.6
2022-12-31T18:32:35.986Z,4173.3
2022-12-31T18:38:25.019Z,4170.7
2022-12-31T18:44:11.126Z,4170.1
2022-12-31T18:49:51.370Z,4169.1
2022-12-31T18:55:28.533Z,4170.1
2022-12-31T19:01:07.063Z,4168.7
2022-12-31T19:06:42.990Z,4170.7
2022-12-31T19:12:54.913Z,4170.6
2022-12-31T19:18:42.756Z,4170.2
2022-12-31T19:24:30.371Z,4173.1
2022-12-31T19:30:48.043Z,4169.1
2022-12-31T19:36:57.984Z,4170.1
2022-12-31T19:42:36.293Z,4169.2
2022-12-31T19:48:34.512Z,4165.7
2022-12-31T19:54:15.933Z,4166.6
2022-12-31T19:59:51.675Z,4170.9
2022-12-31T20:05:39.752Z,4170.1
2022-12-31T20:11:15.339Z,4167.7
2022-12-31T20:16:51.948Z,4165.7
2022-12-31T20:22:28.227Z,4165.9
2022-12-31T20:28:03.575Z,4163.9
2022-12-31T20:34:04.322Z,4165.7
2022-12-31T20:39:42.972Z,4164.2
2022-12-31T20:45:32.770Z,4163.7
2022-12-31T20:51:10.540Z,4163.7
2022-12-31T20:56:58.377Z,4164
2022-12-31T21:03:37.213Z,4161.2
2022-12-31T21:09:38.131Z,4160.7
2022-12-31T21:15:16.800Z,4159
2022-12-31T21:20:52.603Z,4161.2
2022-12-31T21:26:36.495Z,4159.2
2022-12-31T21:32:11.853Z,4159.2
2022-12-31T21:38:01.979Z,4157.7
2022-12-31T21:43:40.035Z,4157.9
2022-12-31T21:49:37.218Z,4156
2022-12-31T21:55:47.432Z,4160.9
2022-12-31T22:01:58.230Z,4158.4
2022-12-31T22:08:23.975Z,4156.2
2022-12-31T22:14:08.549Z,4156.7
2022-12-31T22:20:30.352Z,4157.4
2022-12-31T22:26:09.609Z,4152.8
2022-12-31T22:31:47.084Z,4159
2022-12-31T22:38:12.804Z,4155
2022-12-31T22:44:20.292Z,4156
2022-12-31T22:50:03.315Z,4154.7
2022-12-31T22:55:53.682Z,4155.5
2022-12-31T23:01:30.111Z,4152.7
2022-12-31T23:07:06.705Z,4158
2022-12-31T23:12:45.293Z,4152
2022-12-31T23:18:28.167Z,4153.2
2022-12-31T23:24:04.253Z,4156
2022-12-31T23:29:51.665Z,4154.3
2022-12-31T23:35:36.873Z,4154
2022-12-31T23:41:12.505Z,4151.3
2022-12-31T23:47:10.141Z,4150.6
2022-12-31T23:52:43.308Z,4151.3
2022-12-31T23:58:19.690Z,4151.3
